x

Cape Cod - 24 Nm East Of Provincetown, Ma (44018) Wave Buoy

7:50pm - Sun 26th Apr 2015 All times are EDT. -4 hours from GMT.

  • Sig Wave height 2.0ft
  • Swell Direction
  • Peak Period 7s
  • Average Period 7s
  • Wind
    7mph, 9mph gusts
  • Sea Temp 44°f
  • Air Temp 44°f
  • Sea Pressure 1003.8mb
  • Cape Cod - 24 Nm East Of Provincetown, Ma
  • Cape Cod - 24 Nm East Of Provincetown, Ma

More Historic Weather Station data

Upgrade to MSW Pro to gain access to the past 30 days of data for over 8000 Wavebouys and Weather Stations around the globe.

Join Pro

Comparision Forecast

View Surf forecast
   
Sun 04/26 7:50pm 2ft 7s 7s 7 9 mph 1003.8mb 44f 44f
6:50pm 2ft 7s 7s 9
mph
1003.6mb 45f 44f
5:50pm 2ft 10s 7s 2
mph
1003.7mb 45f 44f
4:50pm 2ft 11s 7s 2
mph
1003.6mb 45f 44f
3:50pm 2ft 10s 7s 4
mph
1003.8mb 45f 44f
2:50pm 2ft 11s 7s 4
mph
1004mb 45f 44f
1:50pm 2ft 11s 7s 4 7 mph 1004.4mb 44f 43f
12:50pm 2ft 8s 7s 7
mph
1004.7mb 44f 43f
11:50am 2ft 10s 7s 7 9 mph 1005mb 44f 43f
10:50am 2ft 11s 7s 7 9 mph 1004.9mb 43f 42f
9:50am 2ft 10s 7s 7 9 mph 1005mb 43f 42f
8:50am 2ft 11s 7s 7 9 mph 1005mb 42f 42f
7:50am 2ft 11s 7s 7 9 mph 1005.1mb 42f 42f
6:50am 2ft 11s 7s 9 11 mph 1004.9mb 42f 42f
5:50am 2ft 11s 6s 4 7 mph 1004.4mb 43f 42f
4:50am 2ft 11s 6s 7 9 mph 1004.4mb 43f 42f
3:50am 2ft 11s 6s 9
mph
1004.5mb 43f 43f
2:50am 2ft 11s 6s 11 13 mph 1005mb 43f 43f
1:50am 1.6ft 12s 6s 9 11 mph 1005.4mb 43f 43f
12:50am 2ft 10s 6s 9
mph
1006mb 43f 43f
Sat 04/25 11:50pm 2ft 11s 6s 2 4 mph 1006.3mb 43f 42f
10:50pm 2ft 11s 6s 4
mph
1006.5mb 43f 43f
9:50pm 2ft 10s 5s 2
mph
1006.9mb 43f 43f
8:50pm 2ft 11s 6s 2
mph
1006.8mb 43f 43f
7:50pm 2ft 11s 6s 4 7 mph 1006.6mb 43f 43f
6:50pm 1.6ft 11s 5s  -  2 mph 1006.4mb 43f 43f
5:50pm 1.6ft 10s 5s 4 7 mph 1006mb 43f 43f
4:50pm 2ft 4s 5s 11 13 mph 1005.8mb 43f 42f
3:50pm 2ft 4s 5s  -  2 mph 1006.1mb 44f 43f
2:50pm 2ft 4s 4s 4 7 mph 1006.5mb 43f 42f
1:50pm 2.5ft 5s 4s 7 9 mph 1006.9mb 43f 41f
12:50pm 3ft 5s 4s 11 13 mph 1007.1mb 43f 40f
11:50am 3.5ft 5s 4s 16 18 mph 1007.3mb 43f 40f
10:50am 3.5ft 5s 4s 16 18 mph 1007.6mb 43f 39f
9:50am 3.5ft 5s 4s 16 20 mph 1007.6mb 42f 39f
8:50am 3.5ft 5s 4s 16 18 mph 1007.7mb 42f 39f
7:50am 4ft 5s 4s 18 20 mph 1008mb 42f 39f
6:50am 4.5ft 6s 5s 18 22 mph 1007.7mb 42f 39f
5:50am 4.5ft 6s 5s 20 25 mph 1007mb 42f 39f
4:50am 6ft 6s 5s 22 27 mph 1006.8mb 42f 39f
3:50am 5.5ft 6s 5s 20 25 mph 1006.8mb 42f 40f
2:50am 6ft 6s 5s 22 25 mph 1007mb 42f 40f
1:50am 6.5ft 6s 5s 25 31 mph 1007mb 42f 40f
12:50am 6ft 6s 5s 27 31 mph 1007.4mb 42f 41f
Fri 04/24 11:50pm 5.5ft 6s 5s 27 31 mph 1007.6mb 42f 41f
10:50pm 5ft 5s 4s 27 31 mph 1007.4mb 42f 41f
9:50pm 3ft 4s 4s 25 29 mph 1007.5mb 42f 42f
8:50pm 2.5ft 4s 4s 18 20 mph 1007.3mb 42f 44f
7:50pm 2.5ft 12s 4s 18 20 mph 1006.5mb 42f 44f
6:50pm 3ft 8s 4s 16 18 mph 1005.9mb 42f 44f
5:50pm 3ft 5s 5s 16 18 mph 1005.6mb 42f 44f